createdAt,value
2022-12-24T00:00:30.940Z,3.36
2022-12-24T00:01:33.514Z,3.40
2022-12-24T00:02:35.660Z,3.39
2022-12-24T00:03:38.131Z,3.23
2022-12-24T00:04:40.381Z,3.24
2022-12-24T00:05:42.320Z,3.29
2022-12-24T00:06:44.469Z,3.41
2022-12-24T00:07:46.297Z,3.36
2022-12-24T00:08:48.631Z,3.17
2022-12-24T00:09:50.429Z,3.23
2022-12-24T00:10:53.538Z,3.31
2022-12-24T00:11:55.439Z,3.24
2022-12-24T00:12:57.346Z,3.31
2022-12-24T00:13:59.179Z,3.28
2022-12-24T00:15:01.201Z,3.29
2022-12-24T00:16:04.732Z,3.22
2022-12-24T00:17:06.648Z,3.27
2022-12-24T00:18:08.487Z,3.35
2022-12-24T00:19:10.446Z,3.30
2022-12-24T00:20:12.935Z,3.24
2022-12-24T00:21:15.875Z,3.14
2022-12-24T00:22:27.999Z,3.02
2022-12-24T00:23:32.801Z,3.06
2022-12-24T00:24:34.722Z,2.84
2022-12-24T00:25:36.531Z,2.93
2022-12-24T00:26:38.953Z,3.01
2022-12-24T00:27:41.057Z,3.09
2022-12-24T00:28:42.976Z,3.21
2022-12-24T00:29:44.582Z,3.30
2022-12-24T00:30:46.601Z,3.35
2022-12-24T00:31:48.296Z,3.39
2022-12-24T00:32:50.118Z,3.44
2022-12-24T00:33:52.380Z,3.51
2022-12-24T00:34:54.863Z,3.56
2022-12-24T00:35:56.903Z,3.58
2022-12-24T00:36:59.184Z,3.51
2022-12-24T00:38:01.119Z,3.55
2022-12-24T00:39:05.456Z,3.53
2022-12-24T00:40:08.575Z,3.53
2022-12-24T00:41:11.741Z,3.48
2022-12-24T00:42:13.606Z,3.55
2022-12-24T00:43:17.429Z,3.55
2022-12-24T00:44:20.085Z,3.52
2022-12-24T00:45:22.229Z,3.48
2022-12-24T00:46:26.110Z,3.46
2022-12-24T00:47:27.974Z,3.48
2022-12-24T00:48:29.943Z,3.43
2022-12-24T00:49:32.757Z,3.09
2022-12-24T00:50:34.787Z,3.03
2022-12-24T00:51:36.902Z,3.14
2022-12-24T00:52:38.652Z,3.17
2022-12-24T00:53:40.797Z,3.17
2022-12-24T00:54:42.982Z,3.22
2022-12-24T00:55:44.930Z,3.22
2022-12-24T00:56:47.242Z,3.31
2022-12-24T00:57:49.275Z,3.43
2022-12-24T00:58:51.473Z,3.48
2022-12-24T00:59:53.508Z,3.47
2022-12-24T01:00:55.305Z,3.43
2022-12-24T01:01:57.131Z,3.36
2022-12-24T01:02:59.586Z,3.35
2022-12-24T01:04:03.073Z,3.35
2022-12-24T01:05:05.566Z,3.29
2022-12-24T01:06:11.849Z,3.38
2022-12-24T01:07:13.891Z,3.33
2022-12-24T01:08:15.541Z,3.35
2022-12-24T01:09:17.473Z,3.39
2022-12-24T01:10:19.999Z,3.37
2022-12-24T01:11:21.999Z,3.48
2022-12-24T01:12:24.102Z,3.42
2022-12-24T01:13:26.163Z,3.38
2022-12-24T01:14:27.925Z,3.31
2022-12-24T01:15:30.081Z,3.35
2022-12-24T01:16:32.209Z,3.27
2022-12-24T01:17:35.482Z,3.27
2022-12-24T01:18:37.389Z,3.02
2022-12-24T01:19:39.801Z,3.04
2022-12-24T01:20:42.114Z,3.15
2022-12-24T01:21:43.990Z,3.20
2022-12-24T01:22:46.165Z,3.08
2022-12-24T01:23:49.021Z,3.07
2022-12-24T01:24:50.910Z,3.08
2022-12-24T01:25:53.061Z,3.18
2022-12-24T01:26:55.390Z,3.11
2022-12-24T01:27:57.647Z,3.04
2022-12-24T01:28:59.416Z,3.01
2022-12-24T01:30:01.358Z,3.00
2022-12-24T01:31:12.470Z,2.96
2022-12-24T01:32:14.890Z,3.03
2022-12-24T01:33:16.915Z,3.08
2022-12-24T01:34:19.663Z,3.08
2022-12-24T01:35:22.029Z,3.08
2022-12-24T01:36:25.094Z,3.18
2022-12-24T01:37:27.251Z,3.19
2022-12-24T01:38:29.473Z,3.22
2022-12-24T01:39:31.386Z,3.22
2022-12-24T01:40:33.357Z,3.24
2022-12-24T01:41:35.204Z,3.27
2022-12-24T01:42:38.170Z,3.23
2022-12-24T01:43:40.363Z,3.22
2022-12-24T01:44:45.861Z,3.13
2022-12-24T01:45:50.863Z,2.95
2022-12-24T01:47:08.753Z,2.95
2022-12-24T01:49:27.699Z,2.93
2022-12-24T01:50:30.985Z,2.82
2022-12-24T01:51:48.400Z,2.84
2022-12-24T06:10:23.418Z,2.63
2022-12-24T06:11:27.216Z,2.71
2022-12-24T06:12:29.401Z,2.71
2022-12-24T06:13:31.826Z,2.80
2022-12-24T06:14:33.646Z,2.83
2022-12-24T06:15:35.772Z,2.85
2022-12-24T06:16:37.764Z,2.82
2022-12-24T06:17:42.033Z,2.84
2022-12-24T06:18:44.917Z,2.83
2022-12-24T06:19:46.794Z,2.83
2022-12-24T06:20:53.301Z,2.82
2022-12-24T06:21:55.274Z,2.84
2022-12-24T06:22:57.438Z,2.76
2022-12-24T06:23:59.634Z,2.83
2022-12-24T06:25:01.548Z,2.72
2022-12-24T06:26:05.936Z,2.78
2022-12-24T06:27:07.819Z,2.86
2022-12-24T06:28:09.553Z,2.86
2022-12-24T06:29:11.503Z,2.85
2022-12-24T06:30:13.717Z,2.80
2022-12-24T06:31:18.925Z,2.91
2022-12-24T06:32:20.863Z,2.95
2022-12-24T06:33:22.898Z,3.00
2022-12-24T06:34:24.646Z,3.03
2022-12-24T06:35:26.700Z,3.06
2022-12-24T06:36:28.820Z,3.10
2022-12-24T06:37:30.770Z,3.15
2022-12-24T06:38:32.909Z,3.06
2022-12-24T06:39:34.931Z,3.02
2022-12-24T06:40:42.475Z,2.95
2022-12-24T06:41:44.508Z,2.98
2022-12-24T06:42:46.167Z,2.95
2022-12-24T06:43:50.657Z,2.96
2022-12-24T06:44:52.535Z,3.06
2022-12-24T06:45:54.623Z,3.14
2022-12-24T06:46:56.877Z,3.03
2022-12-24T06:47:59.945Z,2.95
2022-12-24T06:49:02.007Z,2.91
2022-12-24T06:50:05.253Z,2.87
2022-12-24T06:51:07.752Z,2.80
2022-12-24T06:52:11.602Z,2.84
2022-12-24T06:53:14.018Z,2.83
2022-12-24T06:54:15.967Z,2.81
2022-12-24T06:55:17.987Z,2.82
2022-12-24T06:56:21.374Z,2.75
2022-12-24T06:57:23.231Z,2.74
2022-12-24T06:58:25.320Z,2.78
2022-12-24T06:59:27.436Z,2.85
2022-12-24T07:00:29.296Z,2.86
2022-12-24T07:01:31.217Z,2.93
2022-12-24T07:02:33.795Z,2.96
2022-12-24T07:03:36.142Z,2.98
2022-12-24T07:04:38.462Z,3.09
2022-12-24T07:05:40.457Z,3.09
2022-12-24T07:06:42.919Z,3.20
2022-12-24T07:07:45.295Z,3.20
2022-12-24T07:08:47.397Z,3.16
2022-12-24T07:09:49.805Z,3.08
2022-12-24T07:10:54.435Z,3.06
2022-12-24T07:11:57.711Z,3.04
2022-12-24T07:13:00.026Z,3.04
2022-12-24T07:14:02.437Z,2.98
2022-12-24T07:15:06.174Z,3.00
2022-12-24T07:16:09.536Z,3.08
2022-12-24T07:17:11.958Z,3.14
2022-12-24T07:18:14.543Z,3.19
2022-12-24T07:19:16.518Z,3.24
2022-12-24T07:20:18.924Z,3.34
2022-12-24T07:21:20.904Z,3.33
2022-12-24T07:22:23.225Z,3.20
2022-12-24T07:23:25.683Z,3.08
2022-12-24T07:24:27.544Z,3.04
2022-12-24T07:25:30.679Z,3.04
2022-12-24T07:26:33.334Z,3.13
2022-12-24T07:27:36.249Z,3.18
2022-12-24T07:28:38.181Z,3.20
2022-12-24T07:29:40.573Z,3.24
2022-12-24T07:30:42.707Z,3.31
2022-12-24T07:31:45.510Z,3.30
2022-12-24T07:32:47.646Z,3.43
2022-12-24T07:33:49.447Z,3.59
2022-12-24T07:34:51.204Z,3.58
2022-12-24T07:36:01.962Z,3.61
2022-12-24T07:37:04.416Z,3.53
2022-12-24T07:38:06.307Z,3.48
2022-12-24T07:39:08.600Z,3.43
2022-12-24T07:40:11.661Z,3.31
2022-12-24T07:41:14.087Z,3.31
2022-12-24T07:42:16.427Z,3.37
2022-12-24T07:43:19.213Z,3.42
2022-12-24T07:44:21.129Z,3.55
2022-12-24T07:45:22.881Z,3.61
2022-12-24T07:46:24.719Z,3.61
2022-12-24T07:47:26.677Z,3.55
2022-12-24T07:48:30.296Z,3.54
2022-12-24T07:49:32.936Z,3.63
2022-12-24T07:50:34.944Z,3.58
2022-12-24T07:51:37.308Z,3.68
2022-12-24T07:52:39.297Z,3.77
2022-12-24T07:53:41.046Z,3.91
2022-12-24T07:54:42.861Z,3.96
2022-12-24T07:55:45.319Z,3.82
2022-12-24T07:56:47.350Z,3.79
2022-12-24T07:57:49.465Z,3.74
2022-12-24T07:58:51.685Z,3.72
2022-12-24T07:59:54.022Z,3.72
2022-12-24T08:01:00.249Z,3.68
2022-12-24T08:02:02.575Z,3.70
2022-12-24T08:03:04.952Z,3.68
2022-12-24T08:04:07.506Z,3.76
2022-12-24T08:05:10.109Z,3.89
2022-12-24T08:06:12.409Z,4.07
2022-12-24T08:07:14.187Z,4.13
2022-12-24T08:08:15.922Z,4.28
2022-12-24T08:09:18.264Z,4.41
2022-12-24T08:10:20.735Z,4.46
2022-12-24T08:11:23.206Z,4.62
2022-12-24T08:12:25.005Z,4.69
2022-12-24T08:13:26.752Z,4.61
2022-12-24T08:14:29.974Z,4.64
2022-12-24T08:15:33.010Z,4.70
2022-12-24T08:16:35.678Z,4.78
2022-12-24T08:17:37.604Z,4.89
2022-12-24T08:18:39.323Z,5.01
2022-12-24T08:19:41.694Z,5.10
2022-12-24T08:20:43.772Z,5.17
2022-12-24T08:21:45.631Z,5.15
2022-12-24T08:22:47.507Z,5.12
2022-12-24T08:23:49.899Z,5.18
2022-12-24T08:24:51.867Z,5.11
2022-12-24T08:25:58.527Z,5.05
2022-12-24T08:27:00.461Z,4.98
2022-12-24T08:28:03.233Z,4.97
2022-12-24T08:29:05.820Z,4.96
2022-12-24T08:30:09.862Z,5.00
2022-12-24T08:31:11.835Z,5.01
2022-12-24T08:32:13.735Z,5.11
2022-12-24T08:33:16.078Z,5.11
2022-12-24T08:34:17.987Z,5.02
2022-12-24T08:35:20.542Z,5.11
2022-12-24T08:36:22.646Z,5.11
2022-12-24T08:37:25.402Z,5.19
2022-12-24T08:38:27.847Z,5.28
2022-12-24T08:39:30.319Z,5.34
2022-12-24T08:40:32.434Z,5.28
2022-12-24T08:41:34.946Z,5.41
2022-12-24T08:42:36.958Z,5.44
2022-12-24T08:43:39.375Z,5.51
2022-12-24T08:44:41.742Z,5.55
2022-12-24T08:45:44.857Z,5.53
2022-12-24T08:46:47.156Z,5.59
2022-12-24T08:47:48.944Z,5.50
2022-12-24T08:48:50.897Z,5.40
2022-12-24T08:49:53.757Z,5.48
2022-12-24T08:50:56.313Z,5.56
2022-12-24T08:51:58.326Z,5.54
2022-12-24T08:53:00.825Z,5.50
2022-12-24T08:54:03.516Z,5.39
2022-12-24T08:55:07.298Z,5.32
2022-12-24T08:56:10.750Z,5.27
2022-12-24T08:57:13.751Z,5.21
2022-12-24T08:58:15.665Z,5.24
2022-12-24T08:59:18.047Z,5.20
2022-12-24T09:00:20.331Z,5.19
2022-12-24T09:01:23.281Z,5.30
2022-12-24T09:02:25.383Z,5.30
2022-12-24T09:03:28.750Z,5.32
2022-12-24T09:04:31.439Z,5.43
2022-12-24T09:05:33.442Z,5.52
2022-12-24T09:06:36.497Z,5.47
2022-12-24T09:09:04.509Z,5.37
2022-12-24T09:10:08.755Z,5.46
2022-12-24T09:11:17.003Z,5.50
2022-12-24T09:12:19.006Z,5.41
2022-12-24T09:13:21.051Z,5.50
2022-12-24T09:14:23.363Z,5.50
2022-12-24T09:15:26.009Z,5.46
2022-12-24T09:16:29.202Z,5.46
2022-12-24T09:17:31.983Z,5.53
2022-12-24T09:18:35.542Z,5.66
2022-12-24T09:19:44.338Z,5.68
2022-12-24T09:20:47.086Z,5.79
2022-12-24T09:21:49.694Z,5.80
2022-12-24T09:22:54.305Z,5.72
2022-12-24T09:23:56.228Z,5.82
2022-12-24T09:24:57.852Z,5.86
2022-12-24T09:25:59.678Z,5.97
2022-12-24T09:27:03.352Z,5.98
2022-12-24T09:28:05.273Z,6.05
2022-12-24T09:29:07.394Z,6.07
2022-12-24T09:30:11.744Z,6.12
2022-12-24T09:31:14.495Z,6.03
2022-12-24T09:32:17.492Z,5.98
2022-12-24T09:33:19.592Z,6.04
2022-12-24T09:34:28.235Z,6.16
2022-12-24T09:35:26.046Z,6.17
2022-12-24T09:36:28.346Z,6.27
2022-12-24T09:37:30.321Z,6.37
2022-12-24T09:38:33.858Z,6.20
2022-12-24T09:39:35.807Z,6.23
2022-12-24T09:40:39.325Z,6.23
2022-12-24T09:42:03.694Z,6.28
2022-12-24T09:43:21.255Z,6.33
2022-12-24T09:44:45.377Z,6.39
2022-12-24T09:46:14.290Z,6.27
2022-12-24T09:47:28.648Z,6.26
2022-12-24T09:48:34.226Z,5.84
2022-12-24T09:49:43.022Z,5.68
2022-12-24T09:51:09.841Z,5.64
2022-12-24T09:52:15.486Z,5.66
2022-12-24T09:53:24.125Z,5.69
2022-12-24T09:54:29.807Z,5.75
2022-12-24T09:55:47.679Z,5.85
2022-12-24T09:56:51.143Z,5.99
2022-12-24T10:55:29.316Z,4.75
2022-12-24T10:56:33.524Z,4.65
2022-12-24T10:57:35.953Z,4.70
2022-12-24T10:58:44.537Z,4.77
2022-12-24T11:00:57.366Z,4.95
2022-12-24T11:02:01.439Z,4.94
2022-12-24T11:03:10.119Z,4.89
2022-12-24T11:04:30.890Z,4.98
2022-12-24T11:05:35.256Z,5.08
2022-12-24T11:06:46.103Z,5.10
2022-12-24T11:07:48.421Z,5.17
2022-12-24T11:08:50.242Z,5.38
2022-12-24T11:10:01.954Z,5.48
2022-12-24T11:12:27.091Z,5.87
2022-12-24T11:13:41.288Z,5.86
2022-12-24T11:14:44.971Z,5.73
2022-12-24T11:15:52.340Z,5.70
2022-12-24T11:16:56.175Z,5.60
2022-12-24T11:18:04.661Z,5.57
2022-12-24T11:19:12.561Z,5.69
2022-12-24T11:21:43.832Z,5.69
2022-12-24T11:22:49.305Z,5.73
2022-12-24T11:23:55.423Z,5.72
2022-12-24T11:25:08.047Z,5.86
2022-12-24T11:26:11.010Z,5.97
2022-12-24T11:28:39.181Z,6.23
2022-12-24T11:29:43.516Z,6.23
2022-12-24T11:30:57.050Z,5.89
2022-12-24T11:32:20.923Z,5.60
2022-12-24T11:33:23.838Z,5.72
2022-12-24T11:34:29.081Z,5.80
2022-12-24T11:35:33.538Z,5.90
2022-12-24T11:36:36.111Z,6.04
2022-12-24T11:37:38.458Z,6.16
2022-12-24T11:38:41.598Z,6.00
2022-12-24T11:39:57.634Z,6.03
2022-12-24T11:41:04.155Z,6.13
2022-12-24T11:42:06.508Z,6.25
2022-12-24T11:43:20.680Z,6.23
2022-12-24T11:44:28.074Z,6.16
2022-12-24T11:45:33.047Z,6.18
2022-12-24T11:46:38.235Z,6.16
2022-12-24T11:47:40.909Z,6.05
2022-12-24T11:48:43.785Z,5.97
2022-12-24T11:49:46.209Z,5.99
2022-12-24T11:50:58.786Z,5.94
2022-12-24T11:52:11.299Z,6.07
2022-12-24T11:53:17.327Z,6.05
2022-12-24T11:54:30.689Z,6.13
2022-12-24T11:55:42.482Z,6.25
2022-12-24T11:56:49.183Z,6.35
2022-12-24T11:58:20.152Z,6.40
2022-12-24T11:59:34.943Z,6.03
2022-12-24T12:00:40.589Z,6.05
2022-12-24T12:02:02.846Z,5.87
2022-12-24T12:03:09.174Z,5.95
2022-12-24T12:04:24.357Z,6.08
2022-12-24T12:05:35.215Z,6.14
2022-12-24T12:06:49.957Z,6.26
2022-12-24T12:07:56.870Z,6.34
2022-12-24T12:09:09.318Z,6.33
2022-12-24T12:10:25.398Z,6.38
2022-12-24T12:11:28.701Z,6.39
2022-12-24T12:13:46.475Z,6.49
2022-12-24T12:15:06.484Z,6.37
2022-12-24T12:16:45.747Z,6.33
2022-12-24T12:18:12.619Z,6.50
2022-12-24T12:19:15.685Z,6.58
2022-12-24T12:20:31.711Z,6.32
2022-12-24T12:21:37.676Z,6.34
2022-12-24T12:23:16.538Z,6.42
2022-12-24T12:24:36.366Z,6.47
2022-12-24T12:25:52.111Z,6.50
2022-12-24T12:27:06.778Z,6.28
2022-12-24T12:29:28.611Z,6.47
2022-12-24T12:30:33.877Z,6.44
2022-12-24T12:31:40.060Z,6.51
2022-12-24T12:33:03.642Z,6.48
2022-12-24T12:34:26.215Z,6.55
2022-12-24T12:35:37.139Z,6.68
2022-12-24T12:36:43.572Z,6.80
2022-12-24T12:37:52.491Z,6.74
2022-12-24T12:38:58.954Z,6.72
2022-12-24T12:40:02.611Z,6.73
2022-12-24T12:41:12.494Z,6.79
2022-12-24T12:42:21.431Z,6.85
2022-12-24T12:43:32.866Z,6.94
2022-12-24T12:44:48.005Z,7.00
2022-12-24T12:45:57.208Z,7.06
2022-12-24T12:47:11.978Z,7.04
2022-12-24T12:48:39.391Z,7.06
2022-12-24T12:50:03.990Z,7.07
2022-12-24T12:53:00.025Z,7.32
2022-12-24T12:54:19.086Z,7.33
2022-12-24T12:55:43.577Z,7.43
2022-12-24T12:56:50.030Z,7.47
2022-12-24T12:57:56.554Z,7.23
2022-12-24T12:59:04.822Z,7.13
2022-12-24T13:00:10.989Z,7.13
2022-12-24T13:01:32.565Z,7.01
2022-12-24T13:02:34.939Z,6.80
2022-12-24T13:03:57.087Z,6.86
2022-12-24T13:05:22.951Z,6.86
2022-12-24T13:06:45.986Z,6.86
2022-12-24T13:08:01.451Z,6.73
2022-12-24T13:09:24.697Z,6.47
2022-12-24T13:10:51.244Z,6.51
2022-12-24T13:12:02.663Z,6.64
2022-12-24T13:24:57.398Z,6.68
2022-12-24T13:26:00.997Z,6.59
2022-12-24T13:27:05.945Z,6.61
2022-12-24T13:28:24.468Z,6.52
2022-12-24T13:29:33.289Z,6.51
2022-12-24T13:30:40.927Z,6.49
2022-12-24T13:31:43.118Z,6.49
2022-12-24T13:32:54.760Z,6.49
2022-12-24T13:33:59.862Z,6.51
2022-12-24T13:36:17.891Z,6.59
2022-12-24T13:37:32.777Z,6.17
2022-12-24T13:38:50.170Z,6.08
2022-12-24T13:40:11.002Z,6.12
2022-12-24T13:41:41.396Z,6.02
2022-12-24T13:43:02.324Z,6.02
2022-12-24T13:44:08.729Z,6.04
2022-12-24T13:45:36.568Z,6.09
2022-12-24T13:47:04.519Z,6.01
2022-12-24T13:48:12.846Z,6.01
2022-12-24T13:50:54.084Z,6.12
2022-12-24T13:52:14.779Z,6.03
2022-12-24T13:53:35.771Z,6.07
2022-12-24T13:54:42.528Z,6.00
2022-12-24T13:55:56.927Z,5.92
2022-12-24T13:57:00.359Z,5.86
2022-12-24T13:58:04.830Z,5.78
2022-12-24T13:59:22.928Z,5.81
2022-12-24T14:00:34.528Z,5.87
2022-12-24T14:01:41.084Z,5.96
2022-12-24T14:02:56.596Z,5.98
2022-12-24T14:04:02.975Z,6.01
2022-12-24T14:05:08.778Z,6.01
2022-12-24T14:06:36.675Z,6.00
2022-12-24T14:07:42.405Z,6.01
2022-12-24T14:08:48.675Z,6.03
2022-12-24T14:09:51.624Z,6.03
2022-12-24T14:11:12.161Z,6.01
2022-12-24T14:12:19.544Z,5.96
2022-12-24T14:13:47.877Z,5.98
2022-12-24T14:14:49.831Z,5.99
2022-12-24T14:15:59.484Z,5.98
2022-12-24T14:17:20.362Z,6.00
2022-12-24T14:18:24.745Z,5.98
2022-12-24T14:19:39.635Z,5.97
2022-12-24T14:20:42.100Z,6.01
2022-12-24T14:21:59.294Z,6.07
2022-12-24T14:23:35.202Z,6.06
2022-12-24T14:24:22.122Z,6.14
2022-12-24T14:25:25.246Z,6.14
2022-12-24T14:26:34.011Z,6.19
2022-12-24T14:28:58.747Z,6.29
2022-12-24T14:30:04.231Z,6.02
2022-12-24T14:31:12.610Z,5.96
2022-12-24T14:32:16.056Z,5.95
2022-12-24T14:33:34.612Z,5.92
2022-12-24T14:34:37.458Z,5.81
2022-12-24T14:35:39.785Z,5.82
2022-12-24T14:36:45.369Z,5.83
2022-12-24T14:38:06.439Z,5.85
2022-12-24T14:39:12.182Z,5.88
2022-12-24T14:40:18.027Z,5.87
2022-12-24T14:41:33.576Z,5.78
2022-12-24T14:42:45.728Z,5.82
2022-12-24T14:44:07.704Z,5.85
2022-12-24T14:45:33.634Z,5.87
2022-12-24T14:46:58.148Z,5.88
2022-12-24T14:48:12.543Z,5.84
2022-12-24T14:49:19.128Z,5.75
2022-12-24T14:50:49.178Z,5.69
2022-12-24T14:52:30.849Z,5.76
2022-12-24T14:54:58.094Z,5.82
2022-12-24T14:56:15.083Z,5.64
2022-12-24T14:57:25.476Z,5.61
2022-12-24T14:58:30.462Z,5.59
2022-12-24T14:59:36.587Z,5.57
2022-12-24T15:00:42.053Z,5.59
2022-12-24T15:01:44.942Z,5.60
2022-12-24T15:02:51.861Z,5.59
2022-12-24T15:04:02.873Z,5.59
2022-12-24T15:05:14.961Z,5.60
2022-12-24T15:06:16.919Z,5.67
2022-12-24T15:07:20.172Z,5.75
2022-12-24T15:08:35.254Z,5.79
2022-12-24T15:09:37.376Z,5.81
2022-12-24T15:10:42.820Z,5.80
2022-12-24T15:11:47.657Z,5.79
2022-12-24T15:12:50.913Z,5.82
2022-12-24T15:13:59.742Z,5.86
2022-12-24T15:15:03.167Z,5.84
2022-12-24T15:16:08.633Z,5.88
2022-12-24T15:17:13.660Z,5.94
2022-12-24T15:18:19.234Z,5.98
2022-12-24T15:19:36.511Z,5.97
2022-12-24T15:20:44.187Z,5.95
2022-12-24T15:21:46.352Z,5.95
2022-12-24T15:22:53.677Z,5.97
2022-12-24T15:23:59.014Z,5.94
2022-12-24T15:25:02.103Z,5.92
2022-12-24T15:26:22.941Z,5.91
2022-12-24T15:27:30.567Z,5.94
2022-12-24T15:28:39.593Z,5.94
2022-12-24T15:29:46.847Z,5.95
2022-12-24T15:30:55.115Z,5.97
2022-12-24T15:32:00.859Z,5.96
2022-12-24T15:33:03.333Z,5.95
2022-12-24T15:34:05.844Z,5.98
2022-12-24T15:35:28.224Z,5.98
2022-12-24T15:36:35.026Z,5.98
2022-12-24T15:37:38.924Z,5.97
2022-12-24T15:38:43.833Z,5.99
2022-12-24T15:39:58.994Z,5.96
2022-12-24T15:41:10.592Z,5.91
2022-12-24T15:42:16.641Z,5.79
2022-12-24T15:43:19.508Z,5.82
2022-12-24T15:44:25.070Z,5.82
2022-12-24T15:45:33.083Z,5.78
2022-12-24T15:46:35.374Z,5.69
2022-12-24T15:47:41.350Z,5.68
2022-12-24T15:48:47.321Z,5.73
2022-12-24T15:49:51.937Z,5.67
2022-12-24T15:51:00.005Z,5.70
2022-12-24T15:52:08.791Z,5.64
2022-12-24T15:53:19.813Z,5.53
2022-12-24T15:54:21.470Z,5.55
2022-12-24T15:55:30.295Z,5.55
2022-12-24T15:56:36.065Z,5.52
2022-12-24T15:57:38.065Z,5.50
2022-12-24T15:58:48.662Z,5.48
2022-12-24T15:59:59.425Z,5.53
2022-12-24T16:01:18.673Z,5.41
2022-12-24T16:02:33.639Z,5.28
2022-12-24T16:03:39.632Z,5.33
2022-12-24T16:04:41.707Z,5.35
2022-12-24T16:05:46.153Z,5.31
2022-12-24T16:06:57.010Z,5.31
2022-12-24T16:08:36.152Z,5.32
2022-12-24T16:09:46.602Z,5.36
2022-12-24T16:10:56.125Z,5.41
2022-12-24T16:12:03.470Z,5.38
2022-12-24T16:13:10.817Z,5.30
2022-12-24T16:14:16.731Z,5.33
2022-12-24T16:15:19.933Z,5.39
2022-12-24T16:16:33.601Z,5.44
2022-12-24T16:17:35.982Z,5.50
2022-12-24T16:18:53.089Z,5.51
2022-12-24T16:20:00.499Z,5.51
2022-12-24T16:21:04.680Z,5.52
2022-12-24T16:22:07.501Z,5.54
2022-12-24T16:23:18.949Z,5.56
2022-12-24T16:24:24.609Z,5.55
2022-12-24T16:25:29.405Z,5.56
2022-12-24T16:26:34.040Z,5.42
2022-12-24T16:27:37.320Z,5.40
2022-12-24T16:28:39.692Z,5.41
2022-12-24T16:29:42.000Z,5.40
2022-12-24T16:30:45.923Z,5.42
2022-12-24T16:31:55.032Z,5.48
2022-12-24T16:32:57.340Z,5.45
2022-12-24T16:34:01.506Z,5.46
2022-12-24T16:35:07.526Z,5.46
2022-12-24T16:36:11.428Z,5.44
2022-12-24T16:37:16.370Z,5.47
2022-12-24T16:38:18.356Z,5.46
2022-12-24T16:39:24.364Z,5.47
2022-12-24T16:40:28.068Z,5.49
2022-12-24T16:41:31.907Z,5.51
2022-12-24T16:42:35.478Z,5.53
2022-12-24T16:43:37.487Z,5.56
2022-12-24T16:44:41.590Z,5.55
2022-12-24T16:45:49.860Z,5.57
2022-12-24T16:46:53.465Z,5.58
2022-12-24T16:47:59.123Z,5.54
2022-12-24T16:49:02.167Z,5.50
2022-12-24T16:50:07.073Z,5.58
2022-12-24T16:51:09.594Z,5.58
2022-12-24T16:52:18.437Z,5.63
2022-12-24T16:53:22.671Z,5.59
2022-12-24T16:54:24.482Z,5.56
2022-12-24T16:55:27.520Z,5.57
2022-12-24T16:56:29.462Z,5.58
2022-12-24T16:57:33.153Z,5.47
2022-12-24T16:58:38.728Z,5.55
2022-12-24T16:59:47.583Z,5.55
2022-12-24T17:00:51.024Z,5.55
2022-12-24T17:01:53.107Z,5.63
2022-12-24T17:02:57.188Z,5.65
2022-12-24T17:04:01.714Z,5.66
2022-12-24T17:05:04.948Z,5.68
2022-12-24T17:06:09.025Z,5.71
2022-12-24T17:07:13.363Z,5.74
2022-12-24T17:08:15.691Z,5.81
2022-12-24T17:09:18.783Z,5.89
2022-12-24T17:10:21.012Z,5.89
2022-12-24T17:11:23.663Z,5.90
2022-12-24T17:12:26.782Z,5.98
2022-12-24T17:13:28.818Z,5.99
2022-12-24T17:14:32.830Z,5.99
2022-12-24T17:15:37.593Z,5.99
2022-12-24T17:16:40.651Z,6.01
2022-12-24T17:17:42.516Z,6.05
2022-12-24T17:18:47.399Z,6.08
2022-12-24T17:19:53.633Z,6.13
2022-12-24T17:21:02.109Z,6.17
2022-12-24T17:22:04.365Z,6.16
2022-12-24T17:23:12.471Z,6.16
2022-12-24T17:24:15.244Z,6.14
2022-12-24T17:25:18.819Z,6.13
2022-12-24T17:26:20.827Z,6.17
2022-12-24T17:27:23.812Z,6.19
2022-12-24T17:28:27.003Z,6.26
2022-12-24T17:29:29.567Z,6.26
2022-12-24T17:30:32.219Z,6.25
2022-12-24T17:31:34.571Z,6.31
2022-12-24T17:32:45.700Z,6.29
2022-12-24T17:33:50.576Z,6.26
2022-12-24T17:34:52.975Z,6.27
2022-12-24T17:35:55.299Z,6.27
2022-12-24T17:36:57.982Z,6.32
2022-12-24T17:37:59.778Z,6.32
2022-12-24T17:39:01.495Z,6.31
2022-12-24T17:40:05.420Z,6.32
2022-12-24T17:41:12.924Z,6.31
2022-12-24T17:42:18.035Z,6.29
2022-12-24T17:43:20.182Z,6.33
2022-12-24T17:44:23.163Z,6.32
2022-12-24T17:45:26.790Z,6.34
2022-12-24T17:46:30.370Z,6.38
2022-12-24T17:47:33.153Z,6.39
2022-12-24T17:48:36.322Z,6.42
2022-12-24T17:49:38.973Z,6.49
2022-12-24T17:50:41.080Z,6.54
2022-12-24T17:51:45.619Z,6.62
2022-12-24T17:52:47.420Z,6.43
2022-12-24T17:53:50.268Z,6.42
2022-12-24T17:54:52.743Z,6.32
2022-12-24T17:55:55.746Z,6.33
2022-12-24T17:56:58.752Z,6.33
2022-12-24T17:58:00.737Z,6.32
2022-12-24T17:59:02.782Z,6.17
2022-12-24T18:00:07.558Z,6.15
2022-12-24T18:01:14.718Z,6.14
2022-12-24T18:02:23.436Z,6.13
2022-12-24T18:03:27.015Z,6.18
2022-12-24T18:04:29.412Z,6.26
2022-12-24T18:05:34.968Z,6.18
2022-12-24T18:06:44.163Z,6.09
2022-12-24T18:07:44.373Z,6.05
2022-12-24T18:08:46.922Z,5.78
2022-12-24T18:09:50.568Z,5.67
2022-12-24T18:10:53.383Z,5.47
2022-12-24T18:11:56.069Z,5.48
2022-12-24T18:12:58.378Z,5.55
2022-12-24T18:14:02.137Z,5.63
2022-12-24T18:15:07.369Z,5.64
2022-12-24T18:16:17.208Z,5.73
2022-12-24T18:17:19.900Z,5.71
2022-12-24T18:18:22.391Z,5.69
2022-12-24T18:19:24.304Z,5.70
2022-12-24T18:20:26.976Z,5.74
2022-12-24T18:21:31.400Z,5.79
2022-12-24T18:22:34.460Z,5.81
2022-12-24T18:23:37.138Z,5.88
2022-12-24T18:24:43.116Z,5.88
2022-12-24T18:25:45.197Z,5.92
2022-12-24T18:26:47.672Z,5.98
2022-12-24T18:27:49.685Z,6.06
2022-12-24T18:28:58.019Z,6.11
2022-12-24T18:30:06.437Z,6.13
2022-12-24T18:31:14.593Z,6.18
2022-12-24T18:32:16.693Z,6.23
2022-12-24T18:33:18.424Z,6.28
2022-12-24T18:34:20.947Z,6.26
2022-12-24T18:35:23.424Z,6.17
2022-12-24T18:37:26.493Z,6.14
2022-12-24T18:39:31.777Z,5.92
2022-12-24T18:45:56.483Z,6.01
2022-12-24T18:46:59.373Z,6.00
2022-12-24T18:48:01.670Z,6.03
2022-12-24T18:49:03.717Z,6.01
2022-12-24T18:50:08.249Z,6.00
2022-12-24T18:51:12.388Z,5.98
2022-12-24T18:52:20.783Z,6.07
2022-12-24T18:53:39.952Z,6.10
2022-12-24T18:54:42.652Z,6.15
2022-12-24T18:55:45.906Z,6.12
2022-12-24T18:56:52.179Z,6.00
2022-12-24T18:57:54.818Z,5.93
2022-12-24T18:59:00.529Z,5.94
2022-12-24T19:00:03.895Z,5.86
2022-12-24T19:01:13.299Z,5.80
2022-12-24T19:02:16.293Z,5.80
2022-12-24T19:03:20.049Z,5.71
2022-12-24T19:04:22.622Z,5.71
2022-12-24T19:05:25.790Z,5.74
2022-12-24T19:06:28.253Z,5.72
2022-12-24T19:07:30.371Z,5.71
2022-12-24T19:09:36.997Z,5.75
2022-12-24T19:10:39.327Z,5.75
2022-12-24T19:11:43.027Z,5.76
2022-12-24T19:12:45.901Z,5.81
2022-12-24T19:13:50.304Z,5.86
2022-12-24T19:14:52.957Z,5.89
2022-12-24T19:15:55.380Z,5.92
2022-12-24T19:16:58.326Z,6.01
2022-12-24T19:18:00.319Z,6.04
2022-12-24T19:19:05.070Z,6.04
2022-12-24T19:20:08.960Z,6.07
2022-12-24T19:21:15.709Z,6.15
2022-12-24T19:22:20.060Z,6.19
2022-12-24T19:23:24.998Z,6.18
2022-12-24T19:24:27.978Z,6.22
2022-12-24T19:25:30.249Z,6.23
2022-12-24T19:26:32.516Z,6.28
2022-12-24T19:27:34.805Z,6.30
2022-12-24T19:28:37.288Z,6.35
2022-12-24T19:29:41.428Z,6.34
2022-12-24T19:30:45.378Z,6.31
2022-12-24T19:31:47.827Z,6.34
2022-12-24T19:32:50.528Z,6.36
2022-12-24T19:33:56.603Z,6.41
2022-12-24T19:35:00.037Z,6.43
2022-12-24T19:36:08.270Z,6.37
2022-12-24T19:37:11.165Z,6.35
2022-12-24T19:38:14.535Z,6.36
2022-12-24T19:39:17.000Z,6.34
2022-12-24T19:40:19.995Z,6.35
2022-12-24T19:41:25.684Z,6.34
2022-12-24T19:42:31.817Z,6.34
2022-12-24T19:43:37.372Z,6.31
2022-12-24T19:44:41.037Z,6.38
2022-12-24T19:45:44.097Z,6.38
2022-12-24T19:46:47.782Z,6.39
2022-12-24T19:47:51.367Z,6.34
2022-12-24T19:48:55.980Z,6.34
2022-12-24T19:49:59.316Z,6.33
2022-12-24T19:51:08.868Z,6.35
2022-12-24T19:52:12.339Z,6.36
2022-12-24T19:53:15.389Z,6.37
2022-12-24T19:54:19.856Z,6.38
2022-12-24T19:55:22.435Z,6.38
2022-12-24T19:56:27.614Z,6.37
2022-12-24T19:57:30.072Z,6.37
2022-12-24T19:58:32.587Z,6.39
2022-12-24T19:59:37.236Z,6.39
2022-12-24T20:00:39.693Z,6.36
2022-12-24T20:01:42.902Z,6.34
2022-12-24T20:02:48.447Z,6.33
2022-12-24T20:03:52.700Z,6.33
2022-12-24T20:04:56.105Z,6.34
2022-12-24T20:05:59.526Z,6.32
2022-12-24T20:07:01.723Z,6.33
2022-12-24T20:08:04.117Z,6.29
2022-12-24T20:09:08.210Z,6.27
2022-12-24T20:10:11.798Z,6.28
2022-12-24T20:11:17.804Z,6.26
2022-12-24T20:12:21.122Z,6.27
2022-12-24T20:13:23.770Z,6.26
2022-12-24T20:14:27.214Z,6.28
2022-12-24T20:15:29.401Z,6.30
2022-12-24T20:16:35.444Z,6.29
2022-12-24T20:17:38.207Z,6.26
2022-12-24T20:18:40.626Z,6.21
2022-12-24T20:19:43.252Z,6.21
2022-12-24T20:20:45.390Z,6.22
2022-12-24T20:21:47.969Z,6.22
2022-12-24T20:22:49.965Z,6.25
2022-12-24T20:23:53.037Z,6.23
2022-12-24T20:24:56.319Z,6.20
2022-12-24T20:26:04.736Z,6.22
2022-12-24T20:27:07.978Z,6.23
2022-12-24T20:28:10.033Z,6.27